createdAt,value
2022-12-15T00:02:27.797Z,1.00
2022-12-15T00:05:14.001Z,0.90
2022-12-15T00:08:00.235Z,1.00
2022-12-15T00:10:46.099Z,0.90
2022-12-15T00:13:33.003Z,1.00
2022-12-15T00:16:19.503Z,1.00
2022-12-15T00:19:07.212Z,1.10
2022-12-15T00:21:53.155Z,1.10
2022-12-15T00:24:38.488Z,1.00
2022-12-15T00:27:24.559Z,1.00
2022-12-15T00:30:09.964Z,0.90
2022-12-15T00:32:55.731Z,0.90
2022-12-15T00:35:42.394Z,0.80
2022-12-15T00:38:30.432Z,1.00
2022-12-15T00:41:00.261Z,0.90
2022-12-15T00:43:29.112Z,0.90
2022-12-15T00:46:15.263Z,0.90
2022-12-15T00:48:43.940Z,0.90
2022-12-15T00:51:13.486Z,0.90
2022-12-15T00:53:59.858Z,1.00
2022-12-15T00:56:46.189Z,0.90
2022-12-15T00:59:35.456Z,0.80
2022-12-15T01:02:24.488Z,0.90
2022-12-15T01:05:10.757Z,0.90
2022-12-15T01:07:58.926Z,0.90
2022-12-15T01:10:47.741Z,0.90
2022-12-15T01:13:34.057Z,0.80
2022-12-15T01:16:19.995Z,0.90
2022-12-15T01:19:06.078Z,0.90
2022-12-15T01:21:35.246Z,0.90
2022-12-15T01:24:05.620Z,0.80
2022-12-15T01:26:35.049Z,0.90
2022-12-15T01:29:03.373Z,0.90
2022-12-15T01:31:32.192Z,0.90
2022-12-15T01:34:01.047Z,0.90
2022-12-15T01:36:29.475Z,0.90
2022-12-15T01:38:57.968Z,1.00
2022-12-15T01:41:27.273Z,1.00
2022-12-15T01:43:55.759Z,0.90
2022-12-15T01:46:26.067Z,1.00
2022-12-15T01:49:01.542Z,1.00
2022-12-15T01:51:34.733Z,1.10
2022-12-15T01:54:07.828Z,1.00
2022-12-15T01:56:41.877Z,1.10
2022-12-15T01:59:15.448Z,0.90
2022-12-15T02:01:43.829Z,0.90
2022-12-15T02:04:20.712Z,0.90
2022-12-15T02:06:48.956Z,1.00
2022-12-15T02:09:18.783Z,1.00
2022-12-15T02:12:01.789Z,1.00
2022-12-15T02:14:40.588Z,0.90
2022-12-15T02:17:17.668Z,0.90
2022-12-15T02:20:26.035Z,0.80
2022-12-15T02:23:30.477Z,1.00
2022-12-15T02:26:20.363Z,1.00
2022-12-15T02:28:57.661Z,1.10
2022-12-15T02:31:49.738Z,1.00
2022-12-15T02:34:27.853Z,1.10
2022-12-15T02:37:00.652Z,0.90
2022-12-15T02:39:28.741Z,1.00
2022-12-15T02:41:57.173Z,1.00
2022-12-15T02:44:29.813Z,1.00
2022-12-15T02:47:24.498Z,0.90
2022-12-15T02:50:06.441Z,0.80
2022-12-15T02:52:51.948Z,0.80
2022-12-15T02:55:28.496Z,0.80
2022-12-15T02:58:02.352Z,0.80
2022-12-15T03:00:35.251Z,0.70
2022-12-15T03:03:05.336Z,0.80
2022-12-15T03:05:33.650Z,0.70
2022-12-15T03:08:02.364Z,0.90
2022-12-15T03:10:30.920Z,0.90
2022-12-15T03:13:00.014Z,0.90
2022-12-15T03:15:34.928Z,0.80
2022-12-15T03:18:04.996Z,0.80
2022-12-15T03:20:33.306Z,0.70
2022-12-15T03:23:01.866Z,0.80
2022-12-15T03:25:30.401Z,0.70
2022-12-15T03:27:58.540Z,0.70
2022-12-15T03:30:26.579Z,0.70
2022-12-15T03:32:54.606Z,0.60
2022-12-15T03:35:24.383Z,0.60
2022-12-15T03:37:52.634Z,0.60
2022-12-15T03:40:20.941Z,0.60
2022-12-15T03:42:49.179Z,0.50
2022-12-15T03:45:18.233Z,0.40
2022-12-15T03:47:47.524Z,0.50
2022-12-15T03:50:18.427Z,0.60
2022-12-15T03:52:52.355Z,0.50
2022-12-15T03:55:20.921Z,0.60
2022-12-15T03:57:49.297Z,0.60
2022-12-15T04:00:19.090Z,0.50
2022-12-15T04:02:47.579Z,0.60
2022-12-15T04:05:22.642Z,0.50
2022-12-15T04:07:52.208Z,0.50
2022-12-15T04:10:20.371Z,0.40
2022-12-15T04:12:48.315Z,0.40
2022-12-15T04:15:16.532Z,0.40
2022-12-15T04:17:44.490Z,0.60
2022-12-15T04:20:12.122Z,0.50
2022-12-15T04:22:40.964Z,0.40
2022-12-15T04:25:30.321Z,0.50
2022-12-15T04:28:16.198Z,0.40
2022-12-15T04:31:06.408Z,0.40
2022-12-15T04:33:52.682Z,0.40
2022-12-15T04:36:38.404Z,0.40
2022-12-15T04:39:24.177Z,0.50
2022-12-15T04:42:12.942Z,0.40
2022-12-15T04:44:58.268Z,0.40
2022-12-15T04:47:43.550Z,0.30
2022-12-15T04:50:29.023Z,0.30
2022-12-15T04:53:14.535Z,0.40
2022-12-15T04:55:59.724Z,0.40
2022-12-15T04:58:46.727Z,0.40
2022-12-15T05:01:32.148Z,0.40
2022-12-15T05:04:17.695Z,0.40
2022-12-15T05:07:03.176Z,0.30
2022-12-15T05:09:48.519Z,0.30
2022-12-15T05:12:33.774Z,0.40
2022-12-15T05:15:20.281Z,0.40
2022-12-15T05:18:05.644Z,0.30
2022-12-15T05:20:50.948Z,0.30
2022-12-15T05:23:36.760Z,0.30
2022-12-15T05:26:22.241Z,0.30
2022-12-15T05:29:07.427Z,0.30
2022-12-15T05:31:51.731Z,0.30
2022-12-15T05:34:21.349Z,0.40
2022-12-15T05:36:49.789Z,0.50
2022-12-15T05:39:17.804Z,0.60
2022-12-15T05:41:45.821Z,0.60
2022-12-15T05:44:13.823Z,0.60
2022-12-15T05:46:43.448Z,0.70
2022-12-15T05:49:14.839Z,0.60
2022-12-15T05:51:44.746Z,0.60
2022-12-15T05:54:15.304Z,0.60
2022-12-15T05:56:43.296Z,0.70
2022-12-15T05:59:11.268Z,0.60
2022-12-15T06:01:39.357Z,0.60
2022-12-15T06:04:08.779Z,0.60
2022-12-15T06:06:36.808Z,0.50
2022-12-15T06:09:04.960Z,0.60
2022-12-15T06:11:32.933Z,0.50
2022-12-15T06:14:00.889Z,0.40
2022-12-15T06:16:29.031Z,0.40
2022-12-15T06:18:59.156Z,0.40
2022-12-15T06:21:30.700Z,0.30
2022-12-15T06:23:59.095Z,0.40
2022-12-15T06:26:28.807Z,0.40
2022-12-15T06:28:58.128Z,0.40
2022-12-15T06:31:27.187Z,0.30
2022-12-15T06:34:01.258Z,0.30
2022-12-15T06:36:31.645Z,0.40
2022-12-15T06:39:00.480Z,0.30
2022-12-15T06:41:30.235Z,0.30
2022-12-15T06:43:58.393Z,0.30
2022-12-15T06:46:27.059Z,0.30
2022-12-15T06:48:55.263Z,0.10
2022-12-15T06:51:23.739Z,0.10
2022-12-15T06:53:54.121Z,0.10
2022-12-15T06:56:32.195Z,0.10
2022-12-15T06:59:01.551Z,0.20
2022-12-15T07:01:30.021Z,0.10
2022-12-15T07:04:00.114Z,0.10
2022-12-15T07:06:29.569Z,0.20
2022-12-15T07:08:59.069Z,0.10
2022-12-15T07:11:27.040Z,0.10
2022-12-15T07:13:55.680Z,0.00
2022-12-15T07:16:24.635Z,0.00
2022-12-15T07:18:52.592Z,0.00
2022-12-15T07:21:20.808Z,-0.10
2022-12-15T07:23:57.269Z,-0.10
2022-12-15T07:26:27.619Z,0.00
2022-12-15T07:28:55.979Z,0.10
2022-12-15T07:31:24.387Z,0.10
2022-12-15T07:33:54.481Z,0.10
2022-12-15T07:36:22.713Z,0.10
2022-12-15T07:38:51.553Z,0.00
2022-12-15T07:41:21.233Z,-0.10
2022-12-15T07:43:50.560Z,0.00
2022-12-15T07:46:19.358Z,-0.10
2022-12-15T07:48:50.344Z,0.10
2022-12-15T07:51:20.599Z,0.10
2022-12-15T07:53:50.166Z,0.00
2022-12-15T07:56:20.705Z,0.00
2022-12-15T07:58:50.237Z,0.00
2022-12-15T08:01:19.473Z,0.00
2022-12-15T08:03:48.152Z,0.10
2022-12-15T08:06:16.860Z,0.10
2022-12-15T08:08:50.692Z,0.10
2022-12-15T08:11:20.961Z,0.10
2022-12-15T08:14:10.361Z,0.10
2022-12-15T08:16:39.135Z,0.20
2022-12-15T08:19:08.378Z,0.20
2022-12-15T08:21:36.450Z,0.30
2022-12-15T08:24:05.013Z,0.20
2022-12-15T08:26:32.962Z,0.20
2022-12-15T08:29:40.465Z,0.20
2022-12-15T08:31:53.328Z,0.30
2022-12-15T08:34:21.734Z,0.30
2022-12-15T08:36:49.639Z,0.40
2022-12-15T08:39:26.760Z,0.40
2022-12-15T08:41:54.816Z,0.40
2022-12-15T08:44:24.306Z,0.40
2022-12-15T08:46:52.397Z,0.30
2022-12-15T08:49:22.416Z,0.30
2022-12-15T08:51:51.668Z,0.40
2022-12-15T08:54:20.547Z,0.30
2022-12-15T08:56:48.834Z,0.40
2022-12-15T08:59:17.051Z,0.40
2022-12-15T09:01:46.474Z,0.40
2022-12-15T09:04:15.305Z,0.40
2022-12-15T09:06:43.996Z,0.40
2022-12-15T09:09:16.571Z,0.40
2022-12-15T09:11:44.569Z,0.40
2022-12-15T09:14:12.639Z,0.40
2022-12-15T09:16:40.962Z,0.40
2022-12-15T09:19:11.273Z,0.50
2022-12-15T09:21:39.864Z,0.40
2022-12-15T09:24:08.204Z,0.50
2022-12-15T09:26:36.373Z,0.50
2022-12-15T09:29:04.417Z,0.60
2022-12-15T09:31:34.711Z,0.70
2022-12-15T09:34:03.771Z,0.60
2022-12-15T09:36:33.583Z,0.70
2022-12-15T09:39:03.067Z,0.80
2022-12-15T09:41:54.737Z,0.80
2022-12-15T09:44:41.536Z,0.80
2022-12-15T09:47:17.362Z,0.90
2022-12-15T09:49:54.067Z,0.90
2022-12-15T09:52:26.940Z,1.00
2022-12-15T09:54:55.239Z,0.90
2022-12-15T09:57:31.351Z,1.00
2022-12-15T10:00:09.986Z,1.00
2022-12-15T10:03:22.939Z,1.00
2022-12-15T10:06:20.122Z,1.10
2022-12-15T10:08:55.077Z,1.10
2022-12-15T10:11:41.467Z,1.20
2022-12-15T10:14:19.850Z,1.20
2022-12-15T10:16:59.624Z,1.20
2022-12-15T10:19:35.111Z,1.40
2022-12-15T10:22:03.225Z,1.20
2022-12-15T10:27:49.190Z,1.40
2022-12-15T10:30:17.721Z,1.30
2022-12-15T10:32:51.465Z,1.30
2022-12-15T10:35:22.722Z,1.30
2022-12-15T10:37:50.879Z,1.30
2022-12-15T10:40:42.637Z,1.30
2022-12-15T10:43:15.606Z,1.30
2022-12-15T10:45:43.770Z,1.20
2022-12-15T10:48:20.660Z,1.30
2022-12-15T10:50:50.107Z,1.20
2022-12-15T10:53:39.672Z,1.30
2022-12-15T10:56:09.502Z,1.30
2022-12-15T10:58:50.077Z,1.30
2022-12-15T11:01:20.726Z,1.30
2022-12-15T11:03:52.654Z,1.40
2022-12-15T11:06:22.819Z,1.40
2022-12-15T11:08:52.426Z,1.30
2022-12-15T11:11:50.828Z,1.40
2022-12-15T11:14:23.916Z,1.40
2022-12-15T11:16:55.797Z,1.40
2022-12-15T11:19:36.819Z,1.40
2022-12-15T11:22:13.811Z,1.50
2022-12-15T11:24:46.480Z,1.50
2022-12-15T11:27:24.032Z,1.40
2022-12-15T11:30:02.679Z,1.50
2022-12-15T11:32:36.015Z,1.40
2022-12-15T11:35:04.908Z,1.40
2022-12-15T11:37:44.238Z,1.40
2022-12-15T11:40:40.534Z,1.50
2022-12-15T11:43:35.604Z,1.50
2022-12-15T11:46:20.243Z,1.50
2022-12-15T11:49:13.091Z,1.50
2022-12-15T11:51:43.612Z,1.60
2022-12-15T11:54:25.542Z,1.60
2022-12-15T11:57:00.681Z,1.60
2022-12-15T11:59:44.787Z,1.50
2022-12-15T12:03:04.451Z,1.50
2022-12-15T12:05:42.898Z,1.50
2022-12-15T12:08:25.621Z,1.50
2022-12-15T12:11:16.712Z,1.50
2022-12-15T12:14:00.888Z,1.40
2022-12-15T12:16:39.876Z,1.40
2022-12-15T12:19:12.121Z,1.50
2022-12-15T12:21:44.790Z,1.40
2022-12-15T12:24:19.994Z,1.40
2022-12-15T12:26:54.771Z,1.40
2022-12-15T12:29:29.973Z,1.30
2022-12-15T12:32:08.763Z,1.30
2022-12-15T12:34:51.152Z,1.20
2022-12-15T12:37:23.868Z,1.30
2022-12-15T12:39:52.175Z,1.20
2022-12-15T12:42:26.191Z,1.30
2022-12-15T12:44:54.567Z,1.20
2022-12-15T12:47:29.089Z,1.30
2022-12-15T12:50:00.108Z,1.20
2022-12-15T12:52:31.124Z,1.20
2022-12-15T12:55:01.886Z,1.20
2022-12-15T12:57:41.297Z,1.20
2022-12-15T13:00:27.400Z,1.20
2022-12-15T13:03:17.437Z,1.10
2022-12-15T13:05:51.625Z,1.10
2022-12-15T13:08:52.735Z,1.10
2022-12-15T13:11:55.246Z,1.10
2022-12-15T13:14:30.491Z,1.00
2022-12-15T13:20:20.547Z,1.00
2022-12-15T13:22:48.815Z,1.00
2022-12-15T13:25:40.897Z,1.00
2022-12-15T13:28:31.223Z,0.90
2022-12-15T13:31:34.273Z,0.80
2022-12-15T13:34:22.110Z,0.70
2022-12-15T13:36:55.919Z,0.60
2022-12-15T13:39:52.163Z,0.50
2022-12-15T13:42:35.863Z,0.40
2022-12-15T13:45:39.784Z,0.50
2022-12-15T13:48:16.855Z,0.50
2022-12-15T13:50:53.295Z,0.50
2022-12-15T13:53:26.378Z,0.50
2022-12-15T13:56:04.729Z,0.40
2022-12-15T13:58:40.278Z,0.40
2022-12-15T14:01:20.922Z,0.50
2022-12-15T14:04:05.707Z,0.50
2022-12-15T14:06:39.049Z,0.50
2022-12-15T14:09:15.129Z,0.40
2022-12-15T14:11:55.273Z,0.40
2022-12-15T14:14:26.517Z,0.40
2022-12-15T14:16:58.846Z,0.40
2022-12-15T14:19:27.081Z,0.30
2022-12-15T14:22:33.856Z,0.40
2022-12-15T14:25:20.820Z,0.40
2022-12-15T14:27:51.844Z,0.40
2022-12-15T14:30:38.631Z,0.30
2022-12-15T14:33:09.486Z,0.30
2022-12-15T14:35:41.505Z,0.30
2022-12-15T14:38:15.689Z,0.30
2022-12-15T14:40:50.896Z,0.30
2022-12-15T14:43:22.584Z,0.40
2022-12-15T14:45:55.688Z,0.40
2022-12-15T14:48:42.116Z,0.40
2022-12-15T14:51:13.378Z,0.40
2022-12-15T14:53:43.817Z,0.50
2022-12-15T14:56:30.080Z,0.50
2022-12-15T14:59:04.630Z,0.60
2022-12-15T15:01:40.013Z,0.60
2022-12-15T15:04:29.055Z,0.60
2022-12-15T15:06:59.884Z,0.60
2022-12-15T15:09:29.979Z,0.60
2022-12-15T15:12:03.554Z,0.60
2022-12-15T15:14:34.886Z,0.60
2022-12-15T15:17:09.403Z,0.60
2022-12-15T15:19:39.982Z,0.50
2022-12-15T15:22:24.274Z,0.50
2022-12-15T15:24:53.614Z,0.50
2022-12-15T15:27:29.326Z,0.60
2022-12-15T15:30:21.202Z,0.60
2022-12-15T15:32:54.460Z,0.50
2022-12-15T15:35:24.117Z,0.50
2022-12-15T15:37:54.107Z,0.60
2022-12-15T15:40:22.129Z,0.60
2022-12-15T15:42:51.925Z,0.70
2022-12-15T15:45:20.175Z,0.60
2022-12-15T15:47:50.963Z,0.60
2022-12-15T15:50:25.930Z,0.60
2022-12-15T15:52:54.200Z,0.60
2022-12-15T15:55:27.481Z,0.50
2022-12-15T15:57:56.997Z,0.60
2022-12-15T16:00:26.623Z,0.50
2022-12-15T16:02:54.748Z,0.60
2022-12-15T16:05:24.101Z,0.50
2022-12-15T16:07:52.052Z,0.50
2022-12-15T16:10:21.451Z,0.50
2022-12-15T16:12:51.901Z,0.60
2022-12-15T16:15:25.924Z,0.50
2022-12-15T16:17:54.595Z,0.60
2022-12-15T16:20:24.824Z,0.60
2022-12-15T16:22:56.506Z,0.50
2022-12-15T16:25:33.133Z,0.50
2022-12-15T16:28:14.093Z,0.50
2022-12-15T16:30:44.410Z,0.50
2022-12-15T16:33:13.395Z,0.60
2022-12-15T16:35:42.708Z,0.60
2022-12-15T16:38:16.757Z,0.60
2022-12-15T16:40:44.788Z,0.50
2022-12-15T16:43:16.950Z,0.50
2022-12-15T16:45:48.731Z,0.60
2022-12-15T16:48:17.135Z,0.50
2022-12-15T16:50:47.139Z,0.50
2022-12-15T16:53:18.199Z,0.50
2022-12-15T16:55:53.635Z,0.50
2022-12-15T16:58:22.374Z,0.50
2022-12-15T17:00:53.788Z,0.60
2022-12-15T17:03:25.617Z,0.60
2022-12-15T17:05:56.175Z,0.60
2022-12-15T17:08:28.018Z,0.60
2022-12-15T17:10:56.223Z,0.60
2022-12-15T17:13:36.642Z,0.60
2022-12-15T17:16:12.398Z,0.60
2022-12-15T17:18:40.716Z,0.60
2022-12-15T17:21:15.670Z,0.60
2022-12-15T17:23:46.208Z,0.60
2022-12-15T17:26:27.701Z,0.40
2022-12-15T17:28:58.768Z,0.50
2022-12-15T17:31:34.623Z,0.50
2022-12-15T17:34:09.509Z,0.50
2022-12-15T17:36:38.149Z,0.60
2022-12-15T17:39:11.107Z,0.60
2022-12-15T17:44:34.314Z,0.50
2022-12-15T17:47:06.185Z,0.50
2022-12-15T17:49:37.297Z,0.50
2022-12-15T17:52:09.172Z,0.60
2022-12-15T17:54:37.331Z,0.60
2022-12-15T17:57:05.316Z,0.50
2022-12-15T17:59:33.527Z,0.60
2022-12-15T18:02:01.611Z,0.40
2022-12-15T18:04:31.352Z,0.50
2022-12-15T18:07:02.089Z,0.40
2022-12-15T18:09:31.450Z,0.50
2022-12-15T18:11:59.539Z,0.60
2022-12-15T18:14:28.596Z,0.60
2022-12-15T18:16:56.924Z,0.60
2022-12-15T18:19:28.990Z,0.50
2022-12-15T18:22:01.151Z,0.50
2022-12-15T18:24:29.289Z,0.40
2022-12-15T18:26:57.379Z,0.40
2022-12-15T18:29:25.438Z,0.50
2022-12-15T18:31:53.579Z,0.60
2022-12-15T18:34:22.867Z,0.60
2022-12-15T18:36:51.501Z,0.50
2022-12-15T18:39:23.444Z,0.60
2022-12-15T18:41:52.510Z,0.60
2022-12-15T18:44:23.818Z,0.70
2022-12-15T18:46:52.018Z,0.60
2022-12-15T18:49:21.700Z,0.60
2022-12-15T18:51:50.380Z,0.60
2022-12-15T18:54:22.898Z,0.60
2022-12-15T18:56:51.714Z,0.50
2022-12-15T18:59:20.481Z,0.60
2022-12-15T19:01:49.779Z,0.60
2022-12-15T19:04:17.908Z,0.70
2022-12-15T19:06:46.262Z,0.70
2022-12-15T19:09:18.360Z,0.80
2022-12-15T19:12:17.610Z,0.80
2022-12-15T19:14:46.896Z,0.80
2022-12-15T19:17:34.184Z,1.00
2022-12-15T19:20:20.263Z,1.10
2022-12-15T19:22:49.747Z,1.30
2022-12-15T19:25:25.551Z,1.20
2022-12-15T19:27:59.173Z,1.30
2022-12-15T19:30:28.790Z,1.40
2022-12-15T19:32:57.201Z,1.40
2022-12-15T19:35:25.793Z,1.50
2022-12-15T19:37:55.452Z,1.50
2022-12-15T19:40:27.373Z,1.50
2022-12-15T19:42:57.069Z,1.50
2022-12-15T19:45:27.140Z,1.60
2022-12-15T19:47:55.420Z,1.60
2022-12-15T19:50:25.214Z,1.70
2022-12-15T19:52:55.861Z,1.70
2022-12-15T19:55:27.446Z,1.60
2022-12-15T19:57:57.107Z,1.50
2022-12-15T20:00:26.915Z,1.60
2022-12-15T20:02:56.623Z,1.60
2022-12-15T20:05:26.511Z,1.60
2022-12-15T20:07:55.391Z,1.50
2022-12-15T20:10:32.207Z,1.50
2022-12-15T20:13:03.215Z,1.40
2022-12-15T20:15:31.244Z,1.50
2022-12-15T20:17:59.272Z,1.50
2022-12-15T20:20:29.760Z,1.50
2022-12-15T20:23:02.255Z,1.50
2022-12-15T20:25:31.048Z,1.40
2022-12-15T20:28:00.541Z,1.40
2022-12-15T20:30:32.712Z,1.40
2022-12-15T20:33:01.233Z,1.40
2022-12-15T20:35:31.494Z,1.30
2022-12-15T20:37:59.984Z,1.20
2022-12-15T20:40:29.969Z,1.20
2022-12-15T20:42:58.532Z,1.30
2022-12-15T20:45:27.655Z,1.30
2022-12-15T20:47:57.310Z,1.20
2022-12-15T20:50:28.932Z,1.30
2022-12-15T20:52:57.246Z,1.20
2022-12-15T20:55:25.426Z,1.20
2022-12-15T20:57:53.540Z,1.20
2022-12-15T21:00:22.050Z,1.30
2022-12-15T21:02:51.978Z,1.30
2022-12-15T21:05:23.750Z,1.30
2022-12-15T21:07:52.472Z,1.30
2022-12-15T21:10:22.249Z,1.40
2022-12-15T21:12:51.292Z,1.40
2022-12-15T21:15:21.917Z,1.40
2022-12-15T21:18:11.052Z,1.40
2022-12-15T21:20:43.258Z,1.50
2022-12-15T21:23:20.486Z,1.50
2022-12-15T21:25:48.886Z,1.50
2022-12-15T21:28:16.924Z,1.60
2022-12-15T21:30:45.620Z,1.50
2022-12-15T21:33:13.805Z,1.50
2022-12-15T21:35:46.015Z,1.40
2022-12-15T21:38:33.170Z,1.50
2022-12-15T21:41:03.646Z,1.50
2022-12-15T21:43:34.196Z,1.50
2022-12-15T21:46:04.111Z,1.40
2022-12-15T21:48:49.348Z,1.40
2022-12-15T21:51:19.286Z,1.40
2022-12-15T21:53:47.561Z,1.30
2022-12-15T21:56:17.301Z,1.40
2022-12-15T21:58:45.928Z,1.40
2022-12-15T22:01:15.654Z,1.60
2022-12-15T22:03:45.833Z,1.60
2022-12-15T22:06:20.661Z,1.60
2022-12-15T22:08:49.299Z,1.60
2022-12-15T22:11:22.072Z,1.60
2022-12-15T22:13:51.534Z,1.60
2022-12-15T22:16:20.757Z,1.60
2022-12-15T22:18:51.078Z,1.60
2022-12-15T22:21:21.484Z,1.60
2022-12-15T22:23:50.838Z,1.60
2022-12-15T22:26:22.774Z,1.60
2022-12-15T22:28:51.566Z,1.60
2022-12-15T22:31:19.814Z,1.70
2022-12-15T22:33:47.966Z,1.60
2022-12-15T22:36:15.860Z,1.70
2022-12-15T22:38:46.840Z,1.60
2022-12-15T22:41:19.931Z,1.60
2022-12-15T22:43:51.182Z,1.70
2022-12-15T22:46:21.522Z,1.60
2022-12-15T22:48:49.778Z,1.60
2022-12-15T22:51:19.787Z,1.70
2022-12-15T22:53:49.167Z,1.60
2022-12-15T22:56:25.739Z,1.60
2022-12-15T22:59:18.654Z,1.70
2022-12-15T23:01:46.907Z,1.60
2022-12-15T23:04:15.347Z,1.70
2022-12-15T23:06:43.289Z,1.60
2022-12-15T23:09:12.968Z,1.60
2022-12-15T23:11:41.296Z,1.50
2022-12-15T23:14:11.516Z,1.60
2022-12-15T23:16:38.709Z,1.60
2022-12-15T23:19:08.622Z,1.40
2022-12-15T23:21:37.952Z,1.40
2022-12-15T23:24:06.223Z,1.40
2022-12-15T23:26:35.484Z,1.40
2022-12-15T23:29:11.738Z,1.50
2022-12-15T23:31:39.969Z,1.50
2022-12-15T23:34:08.466Z,1.50
2022-12-15T23:36:36.350Z,1.60
2022-12-15T23:39:04.372Z,1.60
2022-12-15T23:41:32.970Z,1.60
2022-12-15T23:44:02.440Z,1.70
2022-12-15T23:46:30.530Z,1.70
2022-12-15T23:48:59.939Z,1.70
2022-12-15T23:51:27.808Z,1.70
2022-12-15T23:53:55.818Z,1.70
2022-12-15T23:56:25.292Z,1.60
2022-12-15T23:58:56.739Z,1.70
